sensor_id;sensor_type;location;lat;lon;timestamp;P1;durP1;ratioP1;P2;durP2;ratioP2
76867;SDS011;66168;45.478;11.060;2023-03-22T00:01:18;25.20;;;17.00;;
76867;SDS011;66168;45.478;11.060;2023-03-22T00:03:48;26.10;;;16.10;;
76867;SDS011;66168;45.478;11.060;2023-03-22T00:06:16;24.40;;;16.10;;
76867;SDS011;66168;45.478;11.060;2023-03-22T00:08:43;25.20;;;16.80;;
76867;SDS011;66168;45.478;11.060;2023-03-22T00:11:11;24.20;;;16.70;;
76867;SDS011;66168;45.478;11.060;2023-03-22T00:13:38;26.20;;;16.80;;
76867;SDS011;66168;45.478;11.060;2023-03-22T00:16:05;26.60;;;16.70;;
76867;SDS011;66168;45.478;11.060;2023-03-22T00:18:32;23.50;;;16.00;;
76867;SDS011;66168;45.478;11.060;2023-03-22T00:20:59;22.50;;;16.00;;
76867;SDS011;66168;45.478;11.060;2023-03-22T00:23:27;24.30;;;16.90;;
76867;SDS011;66168;45.478;11.060;2023-03-22T00:25:54;24.90;;;16.50;;
76867;SDS011;66168;45.478;11.060;2023-03-22T00:28:22;24.70;;;16.40;;
76867;SDS011;66168;45.478;11.060;2023-03-22T00:30:52;23.60;;;16.50;;
76867;SDS011;66168;45.478;11.060;2023-03-22T00:33:21;23.20;;;17.40;;
76867;SDS011;66168;45.478;11.060;2023-03-22T00:35:51;23.60;;;15.90;;
76867;SDS011;66168;45.478;11.060;2023-03-22T00:38:20;22.30;;;16.10;;
76867;SDS011;66168;45.478;11.060;2023-03-22T00:41:03;24.70;;;16.60;;
76867;SDS011;66168;45.478;11.060;2023-03-22T00:43:31;25.50;;;16.20;;
76867;SDS011;66168;45.478;11.060;2023-03-22T00:45:57;25.80;;;18.40;;
76867;SDS011;66168;45.478;11.060;2023-03-22T00:48:24;27.80;;;17.70;;
76867;SDS011;66168;45.478;11.060;2023-03-22T00:50:51;24.80;;;17.00;;
76867;SDS011;66168;45.478;11.060;2023-03-22T00:53:18;27.10;;;18.50;;
76867;SDS011;66168;45.478;11.060;2023-03-22T00:55:44;25.70;;;17.30;;
76867;SDS011;66168;45.478;11.060;2023-03-22T00:58:11;26.90;;;19.00;;
76867;SDS011;66168;45.478;11.060;2023-03-22T01:00:38;27.90;;;17.20;;
76867;SDS011;66168;45.478;11.060;2023-03-22T01:03:06;26.00;;;18.10;;
76867;SDS011;66168;45.478;11.060;2023-03-22T01:05:33;25.40;;;17.90;;
76867;SDS011;66168;45.478;11.060;2023-03-22T01:08:03;30.70;;;18.20;;
76867;SDS011;66168;45.478;11.060;2023-03-22T01:10:34;25.80;;;17.60;;
76867;SDS011;66168;45.478;11.060;2023-03-22T01:13:03;30.40;;;18.50;;
76867;SDS011;66168;45.478;11.060;2023-03-22T01:15:31;28.10;;;18.80;;
76867;SDS011;66168;45.478;11.060;2023-03-22T01:17:59;25.30;;;17.30;;
76867;SDS011;66168;45.478;11.060;2023-03-22T01:20:29;28.90;;;18.40;;
76867;SDS011;66168;45.478;11.060;2023-03-22T01:22:57;35.60;;;19.90;;
76867;SDS011;66168;45.478;11.060;2023-03-22T01:25:25;26.30;;;17.90;;
76867;SDS011;66168;45.478;11.060;2023-03-22T01:27:52;28.40;;;19.50;;
76867;SDS011;66168;45.478;11.060;2023-03-22T01:30:19;24.90;;;17.60;;
76867;SDS011;66168;45.478;11.060;2023-03-22T01:32:46;30.10;;;17.70;;
76867;SDS011;66168;45.478;11.060;2023-03-22T01:35:15;31.00;;;19.50;;
76867;SDS011;66168;45.478;11.060;2023-03-22T01:37:42;28.70;;;20.00;;
76867;SDS011;66168;45.478;11.060;2023-03-22T01:40:11;29.40;;;19.70;;
76867;SDS011;66168;45.478;11.060;2023-03-22T01:42:39;29.20;;;19.50;;
76867;SDS011;66168;45.478;11.060;2023-03-22T01:47:44;27.70;;;20.50;;
76867;SDS011;66168;45.478;11.060;2023-03-22T01:50:19;28.80;;;19.10;;
76867;SDS011;66168;45.478;11.060;2023-03-22T01:52:49;31.20;;;19.40;;
76867;SDS011;66168;45.478;11.060;2023-03-22T01:55:25;30.10;;;18.90;;
76867;SDS011;66168;45.478;11.060;2023-03-22T01:58:13;28.70;;;18.80;;
76867;SDS011;66168;45.478;11.060;2023-03-22T02:00:56;28.50;;;20.00;;
76867;SDS011;66168;45.478;11.060;2023-03-22T02:03:35;28.80;;;18.60;;
76867;SDS011;66168;45.478;11.060;2023-03-22T02:06:09;27.50;;;19.30;;
76867;SDS011;66168;45.478;11.060;2023-03-22T02:08:36;32.90;;;21.10;;
76867;SDS011;66168;45.478;11.060;2023-03-22T02:11:13;30.80;;;20.10;;
76867;SDS011;66168;45.478;11.060;2023-03-22T02:14:02;27.80;;;18.80;;
76867;SDS011;66168;45.478;11.060;2023-03-22T02:16:54;28.60;;;19.20;;
76867;SDS011;66168;45.478;11.060;2023-03-22T02:25:29;26.70;;;18.00;;
76867;SDS011;66168;45.478;11.060;2023-03-22T02:30:49;28.60;;;20.40;;
76867;SDS011;66168;45.478;11.060;2023-03-22T02:37:02;28.80;;;19.90;;
76867;SDS011;66168;45.478;11.060;2023-03-22T02:39:49;31.20;;;20.30;;
76867;SDS011;66168;45.478;11.060;2023-03-22T02:47:41;31.80;;;21.80;;
76867;SDS011;66168;45.478;11.060;2023-03-22T02:50:21;29.90;;;20.80;;
76867;SDS011;66168;45.478;11.060;2023-03-22T02:56:10;33.70;;;20.90;;
76867;SDS011;66168;45.478;11.060;2023-03-22T02:58:39;27.70;;;17.40;;
76867;SDS011;66168;45.478;11.060;2023-03-22T03:04:02;27.70;;;19.50;;
76867;SDS011;66168;45.478;11.060;2023-03-22T03:06:33;29.70;;;19.50;;
76867;SDS011;66168;45.478;11.060;2023-03-22T03:09:14;30.40;;;20.30;;
76867;SDS011;66168;45.478;11.060;2023-03-22T03:11:51;33.00;;;20.80;;
76867;SDS011;66168;45.478;11.060;2023-03-22T03:14:29;33.00;;;19.90;;
76867;SDS011;66168;45.478;11.060;2023-03-22T03:17:03;32.60;;;20.40;;
76867;SDS011;66168;45.478;11.060;2023-03-22T03:25:25;27.90;;;19.00;;
76867;SDS011;66168;45.478;11.060;2023-03-22T03:28:03;29.50;;;20.50;;
76867;SDS011;66168;45.478;11.060;2023-03-22T03:30:38;30.40;;;19.40;;
76867;SDS011;66168;45.478;11.060;2023-03-22T03:33:21;31.70;;;20.90;;
76867;SDS011;66168;45.478;11.060;2023-03-22T03:36:12;31.70;;;21.10;;
76867;SDS011;66168;45.478;11.060;2023-03-22T03:38:43;30.00;;;19.40;;
76867;SDS011;66168;45.478;11.060;2023-03-22T03:41:17;30.50;;;19.90;;
76867;SDS011;66168;45.478;11.060;2023-03-22T03:43:49;25.40;;;17.30;;
76867;SDS011;66168;45.478;11.060;2023-03-22T03:46:17;31.00;;;21.20;;
76867;SDS011;66168;45.478;11.060;2023-03-22T03:48:46;32.20;;;21.30;;
76867;SDS011;66168;45.478;11.060;2023-03-22T03:51:15;28.40;;;19.60;;
76867;SDS011;66168;45.478;11.060;2023-03-22T03:53:42;30.20;;;20.70;;
76867;SDS011;66168;45.478;11.060;2023-03-22T03:56:09;30.80;;;19.90;;
76867;SDS011;66168;45.478;11.060;2023-03-22T03:58:40;28.90;;;20.00;;
76867;SDS011;66168;45.478;11.060;2023-03-22T04:01:07;32.10;;;20.60;;
76867;SDS011;66168;45.478;11.060;2023-03-22T04:03:57;31.60;;;22.50;;
76867;SDS011;66168;45.478;11.060;2023-03-22T04:06:36;31.40;;;19.50;;
76867;SDS011;66168;45.478;11.060;2023-03-22T04:11:38;28.80;;;19.10;;
76867;SDS011;66168;45.478;11.060;2023-03-22T04:14:05;32.00;;;20.60;;
76867;SDS011;66168;45.478;11.060;2023-03-22T04:16:31;25.70;;;18.20;;
76867;SDS011;66168;45.478;11.060;2023-03-22T04:18:58;30.30;;;19.40;;
76867;SDS011;66168;45.478;11.060;2023-03-22T04:21:26;32.60;;;19.00;;
76867;SDS011;66168;45.478;11.060;2023-03-22T04:23:57;29.50;;;19.80;;
76867;SDS011;66168;45.478;11.060;2023-03-22T04:26:25;31.30;;;20.80;;
76867;SDS011;66168;45.478;11.060;2023-03-22T04:29:04;31.40;;;20.90;;
76867;SDS011;66168;45.478;11.060;2023-03-22T04:31:32;32.40;;;21.00;;
76867;SDS011;66168;45.478;11.060;2023-03-22T04:34:15;30.00;;;20.20;;
76867;SDS011;66168;45.478;11.060;2023-03-22T04:37:00;34.30;;;21.90;;
76867;SDS011;66168;45.478;11.060;2023-03-22T04:39:48;27.60;;;17.80;;
76867;SDS011;66168;45.478;11.060;2023-03-22T04:42:27;29.50;;;19.70;;
76867;SDS011;66168;45.478;11.060;2023-03-22T04:45:03;32.00;;;21.30;;
76867;SDS011;66168;45.478;11.060;2023-03-22T04:47:31;31.80;;;20.10;;
76867;SDS011;66168;45.478;11.060;2023-03-22T04:49:58;29.50;;;19.90;;
76867;SDS011;66168;45.478;11.060;2023-03-22T04:52:26;33.00;;;20.50;;
76867;SDS011;66168;45.478;11.060;2023-03-22T04:54:55;29.70;;;19.60;;
76867;SDS011;66168;45.478;11.060;2023-03-22T04:57:21;32.00;;;20.90;;
76867;SDS011;66168;45.478;11.060;2023-03-22T04:59:50;27.70;;;17.40;;
76867;SDS011;66168;45.478;11.060;2023-03-22T05:02:17;32.80;;;21.40;;
76867;SDS011;66168;45.478;11.060;2023-03-22T05:04:45;33.30;;;21.40;;
76867;SDS011;66168;45.478;11.060;2023-03-22T05:07:26;30.40;;;19.40;;
76867;SDS011;66168;45.478;11.060;2023-03-22T05:09:55;30.10;;;20.30;;
76867;SDS011;66168;45.478;11.060;2023-03-22T05:12:22;30.60;;;20.80;;
76867;SDS011;66168;45.478;11.060;2023-03-22T05:15:09;32.50;;;21.20;;
76867;SDS011;66168;45.478;11.060;2023-03-22T05:17:36;36.10;;;22.10;;
76867;SDS011;66168;45.478;11.060;2023-03-22T05:20:03;30.90;;;19.60;;
76867;SDS011;66168;45.478;11.060;2023-03-22T05:22:37;32.90;;;19.40;;
76867;SDS011;66168;45.478;11.060;2023-03-22T05:25:08;34.20;;;21.60;;
76867;SDS011;66168;45.478;11.060;2023-03-22T05:27:36;36.30;;;21.80;;
76867;SDS011;66168;45.478;11.060;2023-03-22T05:30:24;35.00;;;22.30;;
76867;SDS011;66168;45.478;11.060;2023-03-22T05:32:57;35.00;;;21.30;;
76867;SDS011;66168;45.478;11.060;2023-03-22T05:35:32;33.60;;;22.30;;
76867;SDS011;66168;45.478;11.060;2023-03-22T05:38:02;37.10;;;21.60;;
76867;SDS011;66168;45.478;11.060;2023-03-22T05:40:30;32.30;;;20.40;;
76867;SDS011;66168;45.478;11.060;2023-03-22T05:42:57;36.10;;;22.40;;
76867;SDS011;66168;45.478;11.060;2023-03-22T05:45:24;33.40;;;22.20;;
76867;SDS011;66168;45.478;11.060;2023-03-22T05:48:18;31.80;;;21.70;;
76867;SDS011;66168;45.478;11.060;2023-03-22T05:50:44;33.00;;;22.10;;
76867;SDS011;66168;45.478;11.060;2023-03-22T05:53:12;34.60;;;21.60;;
76867;SDS011;66168;45.478;11.060;2023-03-22T05:55:52;31.30;;;20.60;;
76867;SDS011;66168;45.478;11.060;2023-03-22T05:58:18;30.50;;;20.60;;
76867;SDS011;66168;45.478;11.060;2023-03-22T06:00:46;37.60;;;22.50;;
76867;SDS011;66168;45.478;11.060;2023-03-22T06:03:19;35.00;;;22.90;;
76867;SDS011;66168;45.478;11.060;2023-03-22T06:05:56;38.70;;;21.40;;
76867;SDS011;66168;45.478;11.060;2023-03-22T06:08:33;34.10;;;21.00;;
76867;SDS011;66168;45.478;11.060;2023-03-22T06:11:00;34.70;;;21.80;;
76867;SDS011;66168;45.478;11.060;2023-03-22T06:13:26;35.40;;;22.40;;
76867;SDS011;66168;45.478;11.060;2023-03-22T06:15:54;34.60;;;21.60;;
76867;SDS011;66168;45.478;11.060;2023-03-22T06:18:23;32.40;;;21.60;;
76867;SDS011;66168;45.478;11.060;2023-03-22T06:20:56;32.90;;;21.20;;
76867;SDS011;66168;45.478;11.060;2023-03-22T06:23:23;37.30;;;23.50;;
76867;SDS011;66168;45.478;11.060;2023-03-22T06:25:51;33.30;;;23.50;;
76867;SDS011;66168;45.478;11.060;2023-03-22T06:28:18;35.20;;;21.00;;
76867;SDS011;66168;45.478;11.060;2023-03-22T06:30:52;34.30;;;22.30;;
76867;SDS011;66168;45.478;11.060;2023-03-22T06:33:29;39.50;;;22.50;;
76867;SDS011;66168;45.478;11.060;2023-03-22T06:36:00;33.30;;;20.90;;
76867;SDS011;66168;45.478;11.060;2023-03-22T06:38:33;32.10;;;21.60;;
76867;SDS011;66168;45.478;11.060;2023-03-22T06:41:01;32.70;;;22.10;;
76867;SDS011;66168;45.478;11.060;2023-03-22T06:43:28;34.20;;;21.50;;
76867;SDS011;66168;45.478;11.060;2023-03-22T06:46:03;34.70;;;21.10;;
76867;SDS011;66168;45.478;11.060;2023-03-22T06:48:35;33.00;;;21.20;;
76867;SDS011;66168;45.478;11.060;2023-03-22T06:51:08;34.90;;;21.80;;
76867;SDS011;66168;45.478;11.060;2023-03-22T06:53:36;34.20;;;20.10;;
76867;SDS011;66168;45.478;11.060;2023-03-22T06:56:03;31.40;;;20.80;;
76867;SDS011;66168;45.478;11.060;2023-03-22T06:58:39;34.30;;;21.40;;
76867;SDS011;66168;45.478;11.060;2023-03-22T07:01:06;34.20;;;22.00;;
76867;SDS011;66168;45.478;11.060;2023-03-22T07:03:34;36.90;;;23.70;;
76867;SDS011;66168;45.478;11.060;2023-03-22T07:06:09;36.90;;;23.20;;
76867;SDS011;66168;45.478;11.060;2023-03-22T07:08:40;33.10;;;21.90;;
76867;SDS011;66168;45.478;11.060;2023-03-22T07:11:07;35.30;;;22.20;;
76867;SDS011;66168;45.478;11.060;2023-03-22T07:13:34;37.60;;;24.10;;
76867;SDS011;66168;45.478;11.060;2023-03-22T07:16:04;34.80;;;22.10;;
76867;SDS011;66168;45.478;11.060;2023-03-22T07:18:41;31.40;;;21.40;;
76867;SDS011;66168;45.478;11.060;2023-03-22T07:21:07;32.90;;;21.90;;
76867;SDS011;66168;45.478;11.060;2023-03-22T07:23:35;33.10;;;22.40;;
76867;SDS011;66168;45.478;11.060;2023-03-22T07:26:05;37.60;;;22.50;;
76867;SDS011;66168;45.478;11.060;2023-03-22T07:28:33;33.50;;;21.50;;
76867;SDS011;66168;45.478;11.060;2023-03-22T07:31:04;40.20;;;23.20;;
76867;SDS011;66168;45.478;11.060;2023-03-22T07:33:50;54.50;;;25.10;;
76867;SDS011;66168;45.478;11.060;2023-03-22T07:36:18;141.50;;;32.10;;
76867;SDS011;66168;45.478;11.060;2023-03-22T07:38:50;40.90;;;22.50;;
76867;SDS011;66168;45.478;11.060;2023-03-22T07:41:23;38.80;;;24.50;;
76867;SDS011;66168;45.478;11.060;2023-03-22T07:44:02;27.20;;;18.20;;
76867;SDS011;66168;45.478;11.060;2023-03-22T07:46:49;30.50;;;21.10;;
76867;SDS011;66168;45.478;11.060;2023-03-22T07:49:25;34.60;;;21.60;;
76867;SDS011;66168;45.478;11.060;2023-03-22T07:52:13;24.00;;;15.90;;
76867;SDS011;66168;45.478;11.060;2023-03-22T07:54:40;31.60;;;21.40;;
76867;SDS011;66168;45.478;11.060;2023-03-22T07:57:08;38.90;;;22.00;;
76867;SDS011;66168;45.478;11.060;2023-03-22T07:59:43;39.70;;;25.60;;
76867;SDS011;66168;45.478;11.060;2023-03-22T08:02:10;39.20;;;24.60;;
76867;SDS011;66168;45.478;11.060;2023-03-22T08:07:31;27.80;;;20.20;;
76867;SDS011;66168;45.478;11.060;2023-03-22T08:09:58;26.30;;;18.40;;
76867;SDS011;66168;45.478;11.060;2023-03-22T08:12:26;28.70;;;19.60;;
76867;SDS011;66168;45.478;11.060;2023-03-22T08:15:00;28.90;;;19.40;;
76867;SDS011;66168;45.478;11.060;2023-03-22T08:17:27;35.70;;;21.80;;
76867;SDS011;66168;45.478;11.060;2023-03-22T08:19:55;20.70;;;14.30;;
76867;SDS011;66168;45.478;11.060;2023-03-22T08:22:31;30.90;;;21.10;;
76867;SDS011;66168;45.478;11.060;2023-03-22T08:25:30;24.90;;;16.80;;
76867;SDS011;66168;45.478;11.060;2023-03-22T08:28:04;32.00;;;19.10;;
76867;SDS011;66168;45.478;11.060;2023-03-22T08:30:31;31.80;;;21.00;;
76867;SDS011;66168;45.478;11.060;2023-03-22T08:32:58;36.70;;;23.90;;
76867;SDS011;66168;45.478;11.060;2023-03-22T08:35:25;28.50;;;20.30;;
76867;SDS011;66168;45.478;11.060;2023-03-22T08:37:53;27.60;;;19.00;;
76867;SDS011;66168;45.478;11.060;2023-03-22T08:40:22;35.70;;;21.80;;
76867;SDS011;66168;45.478;11.060;2023-03-22T08:42:54;27.00;;;17.00;;
76867;SDS011;66168;45.478;11.060;2023-03-22T08:45:21;27.40;;;18.80;;
76867;SDS011;66168;45.478;11.060;2023-03-22T08:47:55;31.20;;;20.40;;
76867;SDS011;66168;45.478;11.060;2023-03-22T08:50:23;37.50;;;21.60;;
76867;SDS011;66168;45.478;11.060;2023-03-22T08:52:57;31.50;;;20.60;;
76867;SDS011;66168;45.478;11.060;2023-03-22T08:55:31;18.30;;;11.60;;
76867;SDS011;66168;45.478;11.060;2023-03-22T08:58:13;31.60;;;22.50;;
76867;SDS011;66168;45.478;11.060;2023-03-22T09:01:00;33.10;;;20.60;;
76867;SDS011;66168;45.478;11.060;2023-03-22T09:03:46;30.20;;;21.60;;
76867;SDS011;66168;45.478;11.060;2023-03-22T09:06:13;31.40;;;22.40;;
76867;SDS011;66168;45.478;11.060;2023-03-22T09:08:41;34.10;;;22.00;;
76867;SDS011;66168;45.478;11.060;2023-03-22T09:11:10;29.70;;;17.90;;
76867;SDS011;66168;45.478;11.060;2023-03-22T09:13:39;21.70;;;15.00;;
76867;SDS011;66168;45.478;11.060;2023-03-22T09:16:07;22.50;;;15.50;;
76867;SDS011;66168;45.478;11.060;2023-03-22T09:18:35;31.30;;;20.70;;
76867;SDS011;66168;45.478;11.060;2023-03-22T09:21:08;28.40;;;19.20;;
76867;SDS011;66168;45.478;11.060;2023-03-22T09:23:45;19.80;;;13.50;;
76867;SDS011;66168;45.478;11.060;2023-03-22T09:26:14;24.10;;;16.40;;
76867;SDS011;66168;45.478;11.060;2023-03-22T09:28:41;28.00;;;19.50;;
76867;SDS011;66168;45.478;11.060;2023-03-22T09:31:08;33.80;;;22.70;;
76867;SDS011;66168;45.478;11.060;2023-03-22T09:33:36;27.50;;;18.90;;
76867;SDS011;66168;45.478;11.060;2023-03-22T09:36:04;30.70;;;20.00;;
76867;SDS011;66168;45.478;11.060;2023-03-22T09:38:31;29.00;;;20.50;;
76867;SDS011;66168;45.478;11.060;2023-03-22T09:41:06;33.80;;;20.80;;
76867;SDS011;66168;45.478;11.060;2023-03-22T09:43:41;28.70;;;19.00;;
76867;SDS011;66168;45.478;11.060;2023-03-22T09:46:14;30.70;;;20.10;;
76867;SDS011;66168;45.478;11.060;2023-03-22T09:48:46;29.10;;;17.90;;
76867;SDS011;66168;45.478;11.060;2023-03-22T09:54:42;24.40;;;17.80;;
76867;SDS011;66168;45.478;11.060;2023-03-22T09:57:04;31.60;;;22.20;;
76867;SDS011;66168;45.478;11.060;2023-03-22T09:59:37;25.50;;;17.50;;
76867;SDS011;66168;45.478;11.060;2023-03-22T10:02:25;21.30;;;13.60;;
76867;SDS011;66168;45.478;11.060;2023-03-22T10:05:03;36.70;;;23.30;;
76867;SDS011;66168;45.478;11.060;2023-03-22T10:08:20;33.20;;;25.80;;
76867;SDS011;66168;45.478;11.060;2023-03-22T10:10:52;30.20;;;22.00;;
76867;SDS011;66168;45.478;11.060;2023-03-22T10:13:22;25.10;;;17.40;;
76867;SDS011;66168;45.478;11.060;2023-03-22T10:15:56;27.70;;;18.10;;
76867;SDS011;66168;45.478;11.060;2023-03-22T10:18:29;33.10;;;24.30;;
76867;SDS011;66168;45.478;11.060;2023-03-22T10:21:02;31.60;;;22.60;;
76867;SDS011;66168;45.478;11.060;2023-03-22T10:23:34;24.20;;;17.50;;
76867;SDS011;66168;45.478;11.060;2023-03-22T10:26:06;29.60;;;19.30;;
76867;SDS011;66168;45.478;11.060;2023-03-22T10:28:39;29.90;;;22.30;;
76867;SDS011;66168;45.478;11.060;2023-03-22T10:31:13;31.90;;;24.30;;
76867;SDS011;66168;45.478;11.060;2023-03-22T10:33:51;28.20;;;20.80;;
76867;SDS011;66168;45.478;11.060;2023-03-22T10:36:57;28.20;;;18.20;;
76867;SDS011;66168;45.478;11.060;2023-03-22T10:42:07;27.20;;;19.70;;
76867;SDS011;66168;45.478;11.060;2023-03-22T10:44:44;28.20;;;19.70;;
76867;SDS011;66168;45.478;11.060;2023-03-22T10:47:16;23.30;;;17.00;;
76867;SDS011;66168;45.478;11.060;2023-03-22T10:49:48;25.30;;;19.30;;
76867;SDS011;66168;45.478;11.060;2023-03-22T10:54:53;27.90;;;18.10;;
76867;SDS011;66168;45.478;11.060;2023-03-22T10:57:28;29.80;;;22.70;;
76867;SDS011;66168;45.478;11.060;2023-03-22T10:59:55;40.60;;;22.90;;
76867;SDS011;66168;45.478;11.060;2023-03-22T11:02:30;29.00;;;21.40;;
76867;SDS011;66168;45.478;11.060;2023-03-22T11:04:59;25.60;;;19.70;;
76867;SDS011;66168;45.478;11.060;2023-03-22T11:07:33;26.60;;;17.70;;
76867;SDS011;66168;45.478;11.060;2023-03-22T11:12:37;26.70;;;20.10;;
76867;SDS011;66168;45.478;11.060;2023-03-22T11:15:06;24.20;;;16.50;;
76867;SDS011;66168;45.478;11.060;2023-03-22T11:17:49;27.20;;;19.80;;
76867;SDS011;66168;45.478;11.060;2023-03-22T11:20:16;28.60;;;20.40;;
76867;SDS011;66168;45.478;11.060;2023-03-22T11:22:45;27.70;;;18.20;;
76867;SDS011;66168;45.478;11.060;2023-03-22T11:25:21;28.80;;;20.10;;
76867;SDS011;66168;45.478;11.060;2023-03-22T11:27:54;30.40;;;22.50;;
76867;SDS011;66168;45.478;11.060;2023-03-22T11:30:31;19.90;;;14.10;;
76867;SDS011;66168;45.478;11.060;2023-03-22T11:35:43;23.40;;;16.50;;
76867;SDS011;66168;45.478;11.060;2023-03-22T11:38:23;23.30;;;16.90;;
76867;SDS011;66168;45.478;11.060;2023-03-22T11:40:54;24.20;;;16.70;;
76867;SDS011;66168;45.478;11.060;2023-03-22T11:43:46;28.90;;;20.50;;
76867;SDS011;66168;45.478;11.060;2023-03-22T11:46:19;21.60;;;16.00;;
76867;SDS011;66168;45.478;11.060;2023-03-22T11:48:48;26.10;;;18.80;;
76867;SDS011;66168;45.478;11.060;2023-03-22T11:51:24;22.50;;;15.60;;
76867;SDS011;66168;45.478;11.060;2023-03-22T11:53:54;20.30;;;14.00;;
76867;SDS011;66168;45.478;11.060;2023-03-22T11:56:31;18.00;;;13.00;;
76867;SDS011;66168;45.478;11.060;2023-03-22T12:04:21;20.80;;;14.50;;
76867;SDS011;66168;45.478;11.060;2023-03-22T12:06:54;27.00;;;19.90;;
76867;SDS011;66168;45.478;11.060;2023-03-22T12:09:34;25.10;;;19.20;;
76867;SDS011;66168;45.478;11.060;2023-03-22T12:12:25;24.20;;;16.50;;
76867;SDS011;66168;45.478;11.060;2023-03-22T12:17:47;21.50;;;15.10;;
76867;SDS011;66168;45.478;11.060;2023-03-22T12:23:11;24.90;;;19.10;;
76867;SDS011;66168;45.478;11.060;2023-03-22T12:25:50;25.00;;;17.60;;
76867;SDS011;66168;45.478;11.060;2023-03-22T12:28:22;25.40;;;17.20;;
76867;SDS011;66168;45.478;11.060;2023-03-22T12:31:08;21.10;;;13.80;;
76867;SDS011;66168;45.478;11.060;2023-03-22T12:33:44;19.20;;;12.90;;
76867;SDS011;66168;45.478;11.060;2023-03-22T12:36:15;15.80;;;11.90;;
76867;SDS011;66168;45.478;11.060;2023-03-22T12:41:26;19.20;;;13.60;;
76867;SDS011;66168;45.478;11.060;2023-03-22T12:46:36;19.30;;;13.90;;
76867;SDS011;66168;45.478;11.060;2023-03-22T12:49:16;30.50;;;20.70;;
76867;SDS011;66168;45.478;11.060;2023-03-22T12:51:51;15.80;;;11.20;;
76867;SDS011;66168;45.478;11.060;2023-03-22T12:54:26;23.90;;;15.60;;
76867;SDS011;66168;45.478;11.060;2023-03-22T12:56:53;25.60;;;15.40;;
76867;SDS011;66168;45.478;11.060;2023-03-22T12:59:27;21.80;;;13.80;;
76867;SDS011;66168;45.478;11.060;2023-03-22T13:01:58;21.20;;;14.30;;
76867;SDS011;66168;45.478;11.060;2023-03-22T13:09:46;26.50;;;17.20;;
76867;SDS011;66168;45.478;11.060;2023-03-22T13:20:01;22.90;;;15.80;;
76867;SDS011;66168;45.478;11.060;2023-03-22T13:30:54;22.60;;;15.10;;
76867;SDS011;66168;45.478;11.060;2023-03-22T13:35:46;16.60;;;11.30;;
76867;SDS011;66168;45.478;11.060;2023-03-22T14:01:45;18.70;;;13.90;;
76867;SDS011;66168;45.478;11.060;2023-03-22T14:04:18;19.50;;;13.70;;
76867;SDS011;66168;45.478;11.060;2023-03-22T14:06:58;19.80;;;12.60;;
76867;SDS011;66168;45.478;11.060;2023-03-22T14:09:52;19.10;;;10.70;;
76867;SDS011;66168;45.478;11.060;2023-03-22T14:12:30;22.20;;;15.50;;
76867;SDS011;66168;45.478;11.060;2023-03-22T14:15:03;25.10;;;14.40;;
76867;SDS011;66168;45.478;11.060;2023-03-22T14:17:42;22.10;;;15.60;;
76867;SDS011;66168;45.478;11.060;2023-03-22T14:20:11;21.10;;;13.90;;
76867;SDS011;66168;45.478;11.060;2023-03-22T14:23:28;18.10;;;11.10;;
76867;SDS011;66168;45.478;11.060;2023-03-22T14:25:35;17.70;;;10.30;;
76867;SDS011;66168;45.478;11.060;2023-03-22T14:28:01;25.10;;;13.30;;
76867;SDS011;66168;45.478;11.060;2023-03-22T14:32:59;20.00;;;13.00;;
76867;SDS011;66168;45.478;11.060;2023-03-22T14:35:41;22.60;;;14.90;;
76867;SDS011;66168;45.478;11.060;2023-03-22T14:38:17;25.40;;;13.10;;
76867;SDS011;66168;45.478;11.060;2023-03-22T14:40:44;19.40;;;11.10;;
76867;SDS011;66168;45.478;11.060;2023-03-22T14:45:45;16.60;;;9.20;;
76867;SDS011;66168;45.478;11.060;2023-03-22T14:48:18;15.70;;;10.80;;
76867;SDS011;66168;45.478;11.060;2023-03-22T14:50:52;23.00;;;14.60;;
76867;SDS011;66168;45.478;11.060;2023-03-22T14:53:20;19.90;;;10.80;;
76867;SDS011;66168;45.478;11.060;2023-03-22T14:55:53;21.90;;;15.90;;
76867;SDS011;66168;45.478;11.060;2023-03-22T14:58:20;18.10;;;9.30;;
76867;SDS011;66168;45.478;11.060;2023-03-22T15:00:53;18.00;;;11.50;;
76867;SDS011;66168;45.478;11.060;2023-03-22T15:03:22;11.20;;;7.60;;
76867;SDS011;66168;45.478;11.060;2023-03-22T15:05:50;16.30;;;9.50;;
76867;SDS011;66168;45.478;11.060;2023-03-22T15:13:09;20.00;;;12.60;;
76867;SDS011;66168;45.478;11.060;2023-03-22T15:15:37;16.90;;;10.90;;
76867;SDS011;66168;45.478;11.060;2023-03-22T15:18:05;17.10;;;11.20;;
76867;SDS011;66168;45.478;11.060;2023-03-22T15:20:35;20.10;;;10.50;;
76867;SDS011;66168;45.478;11.060;2023-03-22T15:23:12;17.70;;;10.50;;
76867;SDS011;66168;45.478;11.060;2023-03-22T15:25:41;14.70;;;8.30;;
76867;SDS011;66168;45.478;11.060;2023-03-22T15:28:11;16.20;;;9.90;;
76867;SDS011;66168;45.478;11.060;2023-03-22T15:30:49;15.70;;;8.80;;
76867;SDS011;66168;45.478;11.060;2023-03-22T15:33:23;12.70;;;7.00;;
76867;SDS011;66168;45.478;11.060;2023-03-22T15:35:55;17.70;;;8.50;;
76867;SDS011;66168;45.478;11.060;2023-03-22T15:38:25;24.70;;;12.50;;
76867;SDS011;66168;45.478;11.060;2023-03-22T15:40:56;16.80;;;7.80;;
76867;SDS011;66168;45.478;11.060;2023-03-22T15:43:29;18.00;;;9.50;;
76867;SDS011;66168;45.478;11.060;2023-03-22T15:51:30;17.00;;;9.90;;
76867;SDS011;66168;45.478;11.060;2023-03-22T15:54:05;17.10;;;9.10;;
76867;SDS011;66168;45.478;11.060;2023-03-22T15:56:37;16.50;;;7.80;;
76867;SDS011;66168;45.478;11.060;2023-03-22T15:59:16;20.60;;;10.40;;
76867;SDS011;66168;45.478;11.060;2023-03-22T16:01:46;18.00;;;9.60;;
76867;SDS011;66168;45.478;11.060;2023-03-22T16:04:31;17.70;;;10.10;;
76867;SDS011;66168;45.478;11.060;2023-03-22T16:06:58;17.80;;;9.90;;
76867;SDS011;66168;45.478;11.060;2023-03-22T16:09:24;20.20;;;10.90;;
76867;SDS011;66168;45.478;11.060;2023-03-22T16:11:50;19.90;;;10.60;;
76867;SDS011;66168;45.478;11.060;2023-03-22T16:14:16;21.00;;;10.90;;
76867;SDS011;66168;45.478;11.060;2023-03-22T16:16:43;21.30;;;11.30;;
76867;SDS011;66168;45.478;11.060;2023-03-22T16:19:10;20.20;;;10.80;;
76867;SDS011;66168;45.478;11.060;2023-03-22T16:21:37;20.70;;;11.60;;
76867;SDS011;66168;45.478;11.060;2023-03-22T16:24:03;19.70;;;12.20;;
76867;SDS011;66168;45.478;11.060;2023-03-22T16:26:29;25.90;;;12.10;;
76867;SDS011;66168;45.478;11.060;2023-03-22T16:28:56;19.40;;;11.80;;
76867;SDS011;66168;45.478;11.060;2023-03-22T16:31:22;23.80;;;12.70;;
76867;SDS011;66168;45.478;11.060;2023-03-22T16:33:49;19.70;;;11.20;;
76867;SDS011;66168;45.478;11.060;2023-03-22T16:36:16;18.00;;;11.40;;
76867;SDS011;66168;45.478;11.060;2023-03-22T16:38:44;21.50;;;11.60;;
76867;SDS011;66168;45.478;11.060;2023-03-22T16:46:18;16.50;;;9.70;;
76867;SDS011;66168;45.478;11.060;2023-03-22T16:51:21;14.80;;;9.20;;
76867;SDS011;66168;45.478;11.060;2023-03-22T16:53:49;21.00;;;9.40;;
76867;SDS011;66168;45.478;11.060;2023-03-22T16:56:17;18.40;;;10.50;;